createdAt,value
2023-11-26T00:01:22.107Z,43.02
2023-11-26T00:06:24.168Z,43.01
2023-11-26T00:11:26.948Z,42.99
2023-11-26T00:16:28.922Z,42.80
2023-11-26T00:21:31.265Z,42.81
2023-11-26T00:26:33.377Z,42.94
2023-11-26T00:31:35.337Z,42.71
2023-11-26T00:36:37.408Z,42.61
2023-11-26T00:41:39.763Z,42.82
2023-11-26T00:46:42.229Z,42.47
2023-11-26T00:51:44.693Z,42.74
2023-11-26T00:56:46.894Z,42.56
2023-11-26T01:01:49.131Z,42.36
2023-11-26T01:06:51.464Z,42.40
2023-11-26T01:11:53.470Z,42.48
2023-11-26T01:16:55.951Z,42.63
2023-11-26T01:21:57.894Z,42.46
2023-11-26T01:27:00.104Z,42.55
2023-11-26T01:32:02.162Z,42.39
2023-11-26T01:37:04.564Z,42.21
2023-11-26T01:42:06.677Z,42.47
2023-11-26T01:47:09.854Z,42.23
2023-11-26T01:52:14.594Z,42.48
2023-11-26T01:57:18.710Z,42.35
2023-11-26T02:02:21.097Z,42.39
2023-11-26T02:07:23.131Z,42.23
2023-11-26T02:12:25.233Z,42.50
2023-11-26T02:17:27.445Z,42.43
2023-11-26T02:22:29.631Z,42.15
2023-11-26T02:27:31.569Z,42.02
2023-11-26T02:32:33.853Z,42.37
2023-11-26T02:37:36.113Z,42.09
2023-11-26T02:42:38.792Z,42.07
2023-11-26T02:47:41.005Z,42.14
2023-11-26T02:52:43.220Z,42.23
2023-11-26T02:57:46.101Z,42.39
2023-11-26T03:02:48.878Z,42.41
2023-11-26T03:07:59.648Z,42.56
2023-11-26T03:13:14.209Z,42.17
2023-11-26T03:18:18.816Z,42.16
2023-11-26T03:23:21.445Z,42.39
2023-11-26T03:28:23.578Z,42.05
2023-11-26T03:33:28.269Z,42.29
2023-11-26T03:38:30.353Z,42.09
2023-11-26T03:43:32.613Z,42.00
2023-11-26T03:48:34.899Z,42.02
2023-11-26T03:53:36.916Z,42.18
2023-11-26T03:58:40.102Z,42.16
2023-11-26T04:03:42.226Z,42.17
2023-11-26T04:08:44.235Z,42.10
2023-11-26T04:13:46.490Z,41.99
2023-11-26T04:18:48.622Z,41.93
2023-11-26T04:23:50.616Z,42.19
2023-11-26T04:28:52.658Z,41.97
2023-11-26T04:33:54.711Z,42.24
2023-11-26T04:38:56.747Z,42.09
2023-11-26T04:43:59.032Z,42.26
2023-11-26T04:49:01.062Z,42.08
2023-11-26T04:54:03.313Z,42.11
2023-11-26T04:59:05.906Z,42.16
2023-11-26T05:04:07.879Z,42.11
2023-11-26T05:09:13.112Z,42.08
2023-11-26T05:14:15.121Z,41.93
2023-11-26T05:19:17.243Z,42.05
2023-11-26T05:24:19.268Z,42.26
2023-11-26T05:29:21.505Z,41.91
2023-11-26T05:34:23.517Z,41.89
2023-11-26T05:39:26.119Z,42.26
2023-11-26T05:44:28.326Z,42.16
2023-11-26T05:49:30.546Z,42.22
2023-11-26T05:54:32.679Z,42.07
2023-11-26T05:59:38.581Z,42.20
2023-11-26T06:04:40.529Z,42.23
2023-11-26T06:09:42.712Z,42.13
2023-11-26T06:14:44.998Z,42.32
2023-11-26T06:19:47.675Z,42.14
2023-11-26T06:24:49.815Z,42.27
2023-11-26T06:29:51.960Z,42.08
2023-11-26T06:34:54.295Z,42.27
2023-11-26T06:39:56.564Z,42.40
2023-11-26T06:44:58.588Z,42.32
2023-11-26T06:50:00.796Z,42.09
2023-11-26T06:55:02.997Z,42.43
2023-11-26T07:00:08.571Z,42.48
2023-11-26T07:05:10.796Z,42.38
2023-11-26T07:10:12.836Z,42.45
2023-11-26T07:15:15.166Z,42.45
2023-11-26T07:20:18.892Z,42.29
2023-11-26T07:25:20.945Z,42.35
2023-11-26T07:30:23.222Z,42.49
2023-11-26T07:35:25.351Z,42.45
2023-11-26T07:40:27.426Z,42.59
2023-11-26T07:45:30.412Z,42.41
2023-11-26T07:50:33.696Z,42.55
2023-11-26T07:55:37.699Z,42.93
2023-11-26T08:00:39.949Z,42.96
2023-11-26T08:05:41.929Z,43.23
2023-11-26T08:10:45.605Z,42.77
2023-11-26T08:15:48.825Z,43.11
2023-11-26T08:20:50.948Z,42.85
2023-11-26T08:25:58.231Z,42.92
2023-11-26T08:31:08.595Z,42.99
2023-11-26T08:36:12.206Z,43.21
2023-11-26T08:41:16.456Z,42.83
2023-11-26T08:46:19.896Z,42.92
2023-11-26T08:51:22.259Z,43.04
2023-11-26T08:56:24.355Z,43.80
2023-11-26T09:01:27.165Z,44.18
2023-11-26T09:06:29.260Z,44.56
2023-11-26T09:11:32.008Z,43.86
2023-11-26T09:16:38.172Z,43.73
2023-11-26T09:21:40.346Z,43.75
2023-11-26T09:26:42.520Z,43.83
2023-11-26T09:31:44.732Z,43.83
2023-11-26T09:36:47.315Z,44.31
2023-11-26T09:41:53.391Z,44.12
2023-11-26T09:46:55.999Z,43.81
2023-11-26T09:51:59.190Z,44.26
2023-11-26T09:57:01.978Z,43.72
2023-11-26T10:02:08.482Z,43.58
2023-11-26T10:07:11.808Z,43.75
2023-11-26T10:12:13.875Z,43.69
2023-11-26T10:17:16.275Z,43.75
2023-11-26T10:22:18.197Z,43.33
2023-11-26T10:27:20.255Z,43.58
2023-11-26T10:32:22.521Z,43.57
2023-11-26T10:37:24.613Z,43.32
2023-11-26T10:42:30.831Z,43.54
2023-11-26T10:47:36.425Z,43.30
2023-11-26T10:52:51.609Z,43.57
2023-11-26T10:58:04.265Z,43.49
2023-11-26T11:03:07.035Z,43.34
2023-11-26T11:08:09.710Z,43.28
2023-11-26T11:13:18.130Z,43.33
2023-11-26T11:18:29.325Z,43.67
2023-11-26T11:23:54.161Z,44.20
2023-11-26T11:28:57.598Z,44.72
2023-11-26T11:34:02.307Z,44.63
2023-11-26T11:39:05.560Z,44.79
2023-11-26T11:44:27.757Z,45.14
2023-11-26T11:49:48.317Z,45.49
2023-11-26T11:54:56.513Z,46.61
2023-11-26T12:00:00.933Z,46.45
2023-11-26T12:05:04.801Z,46.90
2023-11-26T12:10:09.242Z,45.70
2023-11-26T12:15:12.171Z,45.50
2023-11-26T12:20:14.268Z,45.29
2023-11-26T12:25:22.796Z,45.21
2023-11-26T12:30:25.954Z,46.32
2023-11-26T12:35:29.734Z,47.89
2023-11-26T12:40:32.523Z,47.48
2023-11-26T12:45:34.616Z,46.76
2023-11-26T12:50:44.242Z,46.33
2023-11-26T12:55:47.268Z,46.13
2023-11-26T13:00:49.762Z,45.77
2023-11-26T13:05:52.762Z,45.89
2023-11-26T13:10:59.170Z,45.43
2023-11-26T13:16:03.790Z,46.44
2023-11-26T13:21:08.317Z,45.63
2023-11-26T13:26:11.734Z,45.41
2023-11-26T13:31:14.514Z,45.23
2023-11-26T13:36:18.102Z,45.27
2023-11-26T13:41:22.092Z,44.80
2023-11-26T13:46:26.134Z,45.12
2023-11-26T13:51:28.586Z,44.75
2023-11-26T13:56:30.820Z,44.66
2023-11-26T14:01:33.255Z,44.70
2023-11-26T14:06:35.523Z,44.84
2023-11-26T14:11:37.783Z,44.76
2023-11-26T14:16:39.932Z,44.54
2023-11-26T14:21:42.148Z,44.26
2023-11-26T14:26:44.394Z,44.92
2023-11-26T14:31:46.430Z,44.79
2023-11-26T14:36:48.873Z,44.41
2023-11-26T14:41:50.970Z,44.44
2023-11-26T14:46:56.287Z,44.17
2023-11-26T14:51:58.253Z,44.29
2023-11-26T14:57:02.636Z,44.35
2023-11-26T15:02:04.880Z,44.32
2023-11-26T15:07:06.940Z,44.30
2023-11-26T15:12:09.127Z,44.34
2023-11-26T15:17:11.186Z,44.30
2023-11-26T15:22:13.297Z,44.21
2023-11-26T15:27:17.010Z,44.04
2023-11-26T15:32:19.083Z,43.96
2023-11-26T15:37:23.273Z,43.93
2023-11-26T15:42:26.712Z,43.70
2023-11-26T15:47:28.700Z,43.94
2023-11-26T15:52:30.707Z,44.05
2023-11-26T15:57:33.050Z,43.72
2023-11-26T16:02:35.235Z,43.79
2023-11-26T16:07:38.911Z,43.86
2023-11-26T16:12:40.904Z,43.73
2023-11-26T16:17:43.889Z,43.89
2023-11-26T16:22:46.542Z,43.67
2023-11-26T16:27:49.984Z,43.71
2023-11-26T16:32:53.642Z,43.70
2023-11-26T16:37:55.740Z,43.69
2023-11-26T16:42:57.822Z,43.71
2023-11-26T16:47:59.907Z,43.46
2023-11-26T16:53:01.991Z,43.33
2023-11-26T16:58:04.147Z,43.66
2023-11-26T17:03:06.430Z,43.40
2023-11-26T17:08:08.900Z,43.21
2023-11-26T17:13:12.553Z,43.43
2023-11-26T17:18:17.727Z,43.20
2023-11-26T17:23:20.244Z,43.27
2023-11-26T17:28:22.179Z,43.27
2023-11-26T17:33:24.585Z,43.09
2023-11-26T17:38:26.728Z,43.19
2023-11-26T17:43:28.821Z,43.14
2023-11-26T17:48:31.069Z,43.14
2023-11-26T17:53:33.619Z,43.17
2023-11-26T17:58:35.907Z,43.58
2023-11-26T18:03:38.103Z,43.81
2023-11-26T18:08:40.359Z,43.97
2023-11-26T18:13:42.832Z,43.58
2023-11-26T18:18:46.252Z,43.63
2023-11-26T18:23:49.519Z,43.67
2023-11-26T18:28:52.254Z,43.43
2023-11-26T18:33:54.177Z,43.54
2023-11-26T18:38:56.172Z,43.47
2023-11-26T18:43:58.272Z,43.63
2023-11-26T18:49:00.638Z,43.58
2023-11-26T18:54:04.311Z,43.67
2023-11-26T18:59:08.586Z,43.66
2023-11-26T19:04:10.962Z,43.78
2023-11-26T19:09:13.423Z,43.54
2023-11-26T19:14:15.913Z,43.51
2023-11-26T19:19:18.126Z,43.75
2023-11-26T19:24:20.239Z,45.93
2023-11-26T19:29:23.616Z,44.83
2023-11-26T19:34:26.164Z,44.82
2023-11-26T19:39:28.515Z,44.80
2023-11-26T19:44:30.932Z,44.37
2023-11-26T19:49:33.030Z,44.33
2023-11-26T19:54:35.302Z,45.21
2023-11-26T19:59:37.405Z,44.87
2023-11-26T20:04:39.645Z,45.02
2023-11-26T20:09:41.742Z,47.54
2023-11-26T20:14:45.505Z,48.36
2023-11-26T20:19:48.378Z,48.25
2023-11-26T20:24:50.404Z,47.78
2023-11-26T20:29:52.591Z,47.85
2023-11-26T20:34:54.607Z,48.09
2023-11-26T20:39:56.884Z,47.90
2023-11-26T20:44:59.234Z,47.15
2023-11-26T20:50:01.347Z,47.21
2023-11-26T20:55:10.274Z,47.33
2023-11-26T21:00:14.396Z,46.79
2023-11-26T21:05:16.500Z,46.96
2023-11-26T21:10:18.688Z,48.95
2023-11-26T21:15:20.858Z,48.72
2023-11-26T21:20:23.084Z,49.74
2023-11-26T21:25:25.405Z,55.60
2023-11-26T21:30:27.425Z,55.31
2023-11-26T21:35:29.492Z,54.27
2023-11-26T21:40:31.457Z,52.97
2023-11-26T21:45:33.608Z,52.04
2023-11-26T21:50:35.717Z,50.84
2023-11-26T21:55:37.856Z,48.95
2023-11-26T22:00:41.350Z,48.41
2023-11-26T22:05:43.757Z,47.96
2023-11-26T22:10:46.407Z,47.58
2023-11-26T22:15:48.353Z,47.38
2023-11-26T22:20:50.502Z,47.17
2023-11-26T22:25:52.549Z,46.66
2023-11-26T22:30:54.614Z,46.59
2023-11-26T22:35:56.640Z,46.34
2023-11-26T22:40:58.728Z,46.08
2023-11-26T22:46:00.826Z,45.80
2023-11-26T22:51:06.130Z,46.03
2023-11-26T22:56:09.246Z,46.04
2023-11-26T23:01:12.214Z,45.75
2023-11-26T23:06:15.045Z,45.54
2023-11-26T23:11:19.409Z,45.54
2023-11-26T23:16:22.952Z,45.04
2023-11-26T23:21:25.200Z,45.10
2023-11-26T23:26:27.244Z,45.05
2023-11-26T23:31:29.271Z,45.02
2023-11-26T23:36:31.546Z,45.01
2023-11-26T23:41:33.726Z,44.73
2023-11-26T23:46:35.756Z,44.64
2023-11-26T23:51:37.953Z,44.62
2023-11-26T23:56:40.811Z,44.34
